Gran Canaria Car — CQYQ — position and weather

sailwx.info

Track history (hours):
 
Tides and Currents Weather Stations Pressure Air Temp Water Temp Dewpoint Dewpoint Depression Visibility Wind Speed Wind Dir Waves Ship Positions

Gran Canaria Car

Last reported at 2017-Oct-12 17:26 UTC. Time now 2017-Oct-19 18:30 UTC.
Position N 42°14' W 008°45'.

Length 130 m; draft 5.2 m.

Type: Cargo ship. MMSI: 255805896.

Date/timePositionNaut miles runAvg speedWind from/ knotsBaromVisibWave heightAir tempDewpointWater temp
2017-Oct-12 17:26N 42°14' W 008°45'  
2017-Oct-07 16:19N 40°52' W 009°25'50 7.4
2017-Oct-07 09:29N 40°03' W 009°40'6 7.3
2017-Oct-07 08:36N 39°57' W 009°42'2 7.3
2017-Oct-07 08:19N 39°55' W 009°42'2 7.3
2017-Oct-07 08:00N 39°53' W 009°43'4 7.1
2017-Oct-07 07:30N 39°49' W 009°44'4 7.1
2017-Oct-07 07:00N 39°46' W 009°45'4 7.3
2017-Oct-07 06:30N 39°42' W 009°46'4 7.3
2017-Oct-07 06:00N 39°39' W 009°47'4 7.3
2017-Oct-07 05:30N 39°35' W 009°49'4 7.4
2017-Oct-07 05:00N 39°31' W 009°50'4 7.7
2017-Oct-07 04:30N 39°28' W 009°50'4 7.9
2017-Oct-07 04:00N 39°24' W 009°50'4 7.5
2017-Oct-07 03:31N 39°20' W 009°51'4 7.6
2017-Oct-07 03:01N 39°16' W 009°51'4 7.9
2017-Oct-07 02:31N 39°12' W 009°51'4 7.5
2017-Oct-07 02:00N 39°08' W 009°51'4 7.6
2017-Oct-07 01:30N 39°05' W 009°51'4 7.5
2017-Oct-07 01:00N 39°01' W 009°51'4 7.8
2017-Oct-07 00:30N 38°57' W 009°51'4 7.4
2017-Oct-07 00:00N 38°53' W 009°51'4 7.3
2017-Oct-06 23:30N 38°50' W 009°51'4 7.6
2017-Oct-06 23:00N 38°46' W 009°51'4 7.4
2017-Oct-06 22:30N 38°42' W 009°51'4 7.1
2017-Oct-06 22:00N 38°39' W 009°50'3 6.8
2017-Oct-06 21:30N 38°35' W 009°49'3 6.9
2017-Oct-06 21:00N 38°32' W 009°48'3 6.7
2017-Oct-06 20:30N 38°29' W 009°47'3 6.4
2017-Oct-06 20:00N 38°26' W 009°46'3 6.3
2017-Oct-06 19:30N 38°23' W 009°45'3 6.6
2017-Oct-06 19:00N 38°19' W 009°44'3 6.7
2017-Oct-06 18:30N 38°16' W 009°43'3 6.7
2017-Oct-06 18:00N 38°13' W 009°42'3 6.7
2017-Oct-06 17:30N 38°10' W 009°41'3 6.8
2017-Oct-06 17:00N 38°06' W 009°40'3 7.0
2017-Oct-06 16:30N 38°03' W 009°39'4 7.0
2017-Oct-06 16:00N 37°59' W 009°38'4 7.0
2017-Oct-06 15:30N 37°56' W 009°37'4 7.2
2017-Oct-06 15:00N 37°52' W 009°36'4 7.3
2017-Oct-06 14:30N 37°49' W 009°35'4 7.5
2017-Oct-06 14:00N 37°45' W 009°34'4 7.8
2017-Oct-06 13:30N 37°42' W 009°33'4 7.6
2017-Oct-06 13:00N 37°38' W 009°32'4 7.3
2017-Oct-06 12:30N 37°34' W 009°31'4 7.4
2017-Oct-06 12:00N 37°31' W 009°30'4 7.7
2017-Oct-06 11:30N 37°27' W 009°29'4 7.8
2017-Oct-06 11:00N 37°23' W 009°28'4 7.3
2017-Oct-06 10:30N 37°20' W 009°26'4 7.3
2017-Oct-06 10:00N 37°16' W 009°25'4 7.2
2017-Oct-06 09:30N 37°13' W 009°24'4 7.1
2017-Oct-06 09:00N 37°09' W 009°23'3 7.0
2017-Oct-06 08:30N 37°06' W 009°22'3 6.8
2017-Oct-06 08:00N 37°02' W 009°21'3 6.7
2017-Oct-06 07:30N 36°59' W 009°21'4 7.3
2017-Oct-06 07:00N 36°56' W 009°20'3 6.8
2017-Oct-06 06:30N 36°52' W 009°18'3 6.9
2017-Oct-06 06:00N 36°50' W 009°15'4 7.1
2017-Oct-06 05:30N 36°48' W 009°12'4 7.2
2017-Oct-06 05:00N 36°46' W 009°08'4 7.9
2017-Oct-06 04:30N 36°44' W 009°03'4 7.7
2017-Oct-06 03:59N 36°44' W 008°58'4 8.0
2017-Oct-06 03:30N 36°44' W 008°53'4 8.2
2017-Oct-06 03:00N 36°45' W 008°48'4 8.1
2017-Oct-06 02:30N 36°47' W 008°44'4 8.2
2017-Oct-06 02:00N 36°49' W 008°40'4 7.9
2017-Oct-06 01:30N 36°51' W 008°35'4 7.6
2017-Oct-06 01:00N 36°51' W 008°31'4 7.8
2017-Oct-06 00:30N 36°50' W 008°26'4 7.8
2017-Oct-06 00:00N 36°51' W 008°21'4 7.6
2017-Oct-05 23:30N 36°51' W 008°16'4 7.8
2017-Oct-05 23:00N 36°52' W 008°12'4 7.4
2017-Oct-05 22:30N 36°49' W 008°09'4 7.7
2017-Oct-05 22:00N 36°46' W 008°06'4 7.5
2017-Oct-05 21:30N 36°42' W 008°04'  
Track history (hours):
 
Tides and Currents Weather Stations Pressure Air Temp Water Temp Dewpoint Dewpoint Depression Visibility Wind Speed Wind Dir Waves Ship Positions

Gran Canaria Car

Last reported at 2017-Oct-12 17:26 UTC. Time now 2017-Oct-19 18:30 UTC.
Position N 42°14' W 008°45'.

Length 130 m; draft 5.2 m.

Type: Cargo ship. MMSI: 255805896.

Date/timePositionNaut miles runAvg speedWind from/ knotsBaromVisibWave heightAir tempDewpointWater temp
2017-Oct-12 17:26N 42°14' W 008°45'  
2017-Oct-07 16:19N 40°52' W 009°25'50 7.4
2017-Oct-07 09:29N 40°03' W 009°40'6 7.3
2017-Oct-07 08:36N 39°57' W 009°42'2 7.3
2017-Oct-07 08:19N 39°55' W 009°42'2 7.3
2017-Oct-07 08:00N 39°53' W 009°43'4 7.1
2017-Oct-07 07:30N 39°49' W 009°44'4 7.1
2017-Oct-07 07:00N 39°46' W 009°45'4 7.3
2017-Oct-07 06:30N 39°42' W 009°46'4 7.3
2017-Oct-07 06:00N 39°39' W 009°47'4 7.3
2017-Oct-07 05:30N 39°35' W 009°49'4 7.4
2017-Oct-07 05:00N 39°31' W 009°50'4 7.7
2017-Oct-07 04:30N 39°28' W 009°50'4 7.9
2017-Oct-07 04:00N 39°24' W 009°50'4 7.5
2017-Oct-07 03:31N 39°20' W 009°51'4 7.6
2017-Oct-07 03:01N 39°16' W 009°51'4 7.9
2017-Oct-07 02:31N 39°12' W 009°51'4 7.5
2017-Oct-07 02:00N 39°08' W 009°51'4 7.6
2017-Oct-07 01:30N 39°05' W 009°51'4 7.5
2017-Oct-07 01:00N 39°01' W 009°51'4 7.8
2017-Oct-07 00:30N 38°57' W 009°51'4 7.4
2017-Oct-07 00:00N 38°53' W 009°51'4 7.3
2017-Oct-06 23:30N 38°50' W 009°51'4 7.6
2017-Oct-06 23:00N 38°46' W 009°51'4 7.4
2017-Oct-06 22:30N 38°42' W 009°51'4 7.1
2017-Oct-06 22:00N 38°39' W 009°50'3 6.8
2017-Oct-06 21:30N 38°35' W 009°49'3 6.9
2017-Oct-06 21:00N 38°32' W 009°48'3 6.7
2017-Oct-06 20:30N 38°29' W 009°47'3 6.4
2017-Oct-06 20:00N 38°26' W 009°46'3 6.3
2017-Oct-06 19:30N 38°23' W 009°45'3 6.6
2017-Oct-06 19:00N 38°19' W 009°44'3 6.7
2017-Oct-06 18:30N 38°16' W 009°43'3 6.7
2017-Oct-06 18:00N 38°13' W 009°42'3 6.7
2017-Oct-06 17:30N 38°10' W 009°41'3 6.8
2017-Oct-06 17:00N 38°06' W 009°40'3 7.0
2017-Oct-06 16:30N 38°03' W 009°39'4 7.0
2017-Oct-06 16:00N 37°59' W 009°38'4 7.0
2017-Oct-06 15:30N 37°56' W 009°37'4 7.2
2017-Oct-06 15:00N 37°52' W 009°36'4 7.3
2017-Oct-06 14:30N 37°49' W 009°35'4 7.5
2017-Oct-06 14:00N 37°45' W 009°34'4 7.8
2017-Oct-06 13:30N 37°42' W 009°33'4 7.6
2017-Oct-06 13:00N 37°38' W 009°32'4 7.3
2017-Oct-06 12:30N 37°34' W 009°31'4 7.4
2017-Oct-06 12:00N 37°31' W 009°30'4 7.7
2017-Oct-06 11:30N 37°27' W 009°29'4 7.8
2017-Oct-06 11:00N 37°23' W 009°28'4 7.3
2017-Oct-06 10:30N 37°20' W 009°26'4 7.3
2017-Oct-06 10:00N 37°16' W 009°25'4 7.2
2017-Oct-06 09:30N 37°13' W 009°24'4 7.1
2017-Oct-06 09:00N 37°09' W 009°23'3 7.0
2017-Oct-06 08:30N 37°06' W 009°22'3 6.8
2017-Oct-06 08:00N 37°02' W 009°21'3 6.7
2017-Oct-06 07:30N 36°59' W 009°21'4 7.3
2017-Oct-06 07:00N 36°56' W 009°20'3 6.8
2017-Oct-06 06:30N 36°52' W 009°18'3 6.9
2017-Oct-06 06:00N 36°50' W 009°15'4 7.1
2017-Oct-06 05:30N 36°48' W 009°12'4 7.2
2017-Oct-06 05:00N 36°46' W 009°08'4 7.9
2017-Oct-06 04:30N 36°44' W 009°03'4 7.7
2017-Oct-06 03:59N 36°44' W 008°58'4 8.0
2017-Oct-06 03:30N 36°44' W 008°53'4 8.2
2017-Oct-06 03:00N 36°45' W 008°48'4 8.1
2017-Oct-06 02:30N 36°47' W 008°44'4 8.2
2017-Oct-06 02:00N 36°49' W 008°40'4 7.9
2017-Oct-06 01:30N 36°51' W 008°35'4 7.6
2017-Oct-06 01:00N 36°51' W 008°31'4 7.8
2017-Oct-06 00:30N 36°50' W 008°26'4 7.8
2017-Oct-06 00:00N 36°51' W 008°21'4 7.6
2017-Oct-05 23:30N 36°51' W 008°16'4 7.8
2017-Oct-05 23:00N 36°52' W 008°12'4 7.4
2017-Oct-05 22:30N 36°49' W 008°09'4 7.7
2017-Oct-05 22:00N 36°46' W 008°06'4 7.5
2017-Oct-05 21:30N 36°42' W 008°04'  

Dump ship's entire track history